createdAt,value
2022-10-02T00:02:25.887Z,11.50
2022-10-02T00:05:19.422Z,11.50
2022-10-02T00:07:46.632Z,11.60
2022-10-02T00:10:26.825Z,11.60
2022-10-02T00:13:00.691Z,11.60
2022-10-02T00:15:31.330Z,11.60
2022-10-02T00:18:30.382Z,11.80
2022-10-02T00:21:12.903Z,11.80
2022-10-02T00:23:45.192Z,11.70
2022-10-02T00:26:18.251Z,11.70
2022-10-02T00:29:33.299Z,11.70
2022-10-02T00:32:21.677Z,11.80
2022-10-02T00:35:25.888Z,11.80
2022-10-02T00:38:17.862Z,11.90
2022-10-02T00:40:47.748Z,11.90
2022-10-02T00:43:26.519Z,12.00
2022-10-02T00:46:17.811Z,12.00
2022-10-02T00:48:59.020Z,12.10
2022-10-02T00:51:42.344Z,12.00
2022-10-02T00:54:28.187Z,12.10
2022-10-02T00:57:00.720Z,12.10
2022-10-02T00:59:46.340Z,12.00
2022-10-02T01:02:31.934Z,12.10
2022-10-02T01:05:11.115Z,12.10
2022-10-02T01:07:46.965Z,12.10
2022-10-02T01:10:15.283Z,12.10
2022-10-02T01:12:42.958Z,12.10
2022-10-02T01:15:28.336Z,12.10
2022-10-02T01:17:56.427Z,12.10
2022-10-02T01:20:39.756Z,12.00
2022-10-02T01:23:22.375Z,11.90
2022-10-02T01:25:49.836Z,11.90
2022-10-02T01:28:17.987Z,11.90
2022-10-02T01:30:48.775Z,11.90
2022-10-02T01:33:16.618Z,11.90
2022-10-02T01:35:44.559Z,11.90
2022-10-02T01:38:16.418Z,12.00
2022-10-02T01:40:43.751Z,12.00
2022-10-02T01:43:22.299Z,12.00
2022-10-02T01:46:05.550Z,12.00
2022-10-02T01:49:03.580Z,12.00
2022-10-02T01:51:44.747Z,12.00
2022-10-02T01:54:21.052Z,12.00
2022-10-02T01:57:14.535Z,12.00
2022-10-02T02:00:07.721Z,12.00
2022-10-02T02:03:10.644Z,12.00
2022-10-02T02:05:56.317Z,12.00
2022-10-02T02:08:28.745Z,12.00
2022-10-02T02:11:04.890Z,12.10
2022-10-02T02:13:53.802Z,12.10
2022-10-02T02:16:52.737Z,12.00
2022-10-02T02:19:39.540Z,12.00
2022-10-02T02:22:19.736Z,12.10
2022-10-02T02:24:54.617Z,12.10
2022-10-02T02:27:26.955Z,12.00
2022-10-02T02:30:01.877Z,12.10
2022-10-02T02:32:34.201Z,12.10
2022-10-02T02:35:38.005Z,12.10
2022-10-02T02:38:28.836Z,12.00
2022-10-02T02:41:00.406Z,12.00
2022-10-02T02:43:44.546Z,12.00
2022-10-02T02:46:23.181Z,12.00
2022-10-02T02:49:09.107Z,12.00
2022-10-02T02:51:43.626Z,12.00
2022-10-02T02:54:19.373Z,12.10
2022-10-02T02:56:49.124Z,12.10
2022-10-02T02:59:18.848Z,12.10
2022-10-02T03:01:46.288Z,12.10
2022-10-02T03:04:14.884Z,12.10
2022-10-02T03:06:49.548Z,12.10
2022-10-02T03:09:20.366Z,12.10
2022-10-02T03:12:08.500Z,12.00
2022-10-02T03:14:54.487Z,12.10
2022-10-02T03:17:40.018Z,12.10
2022-10-02T03:20:36.610Z,12.10
2022-10-02T03:23:03.837Z,12.10
2022-10-02T03:25:42.792Z,12.10
2022-10-02T03:28:31.823Z,12.10
2022-10-02T03:31:05.223Z,12.10
2022-10-02T03:33:34.242Z,12.20
2022-10-02T03:36:02.035Z,12.10
2022-10-02T03:38:31.308Z,12.20
2022-10-02T03:40:58.868Z,12.10
2022-10-02T03:43:29.436Z,12.20
2022-10-02T03:45:57.237Z,12.20
2022-10-02T03:48:24.518Z,12.10
2022-10-02T03:50:52.047Z,12.10
2022-10-02T03:53:25.193Z,12.10
2022-10-02T03:56:06.935Z,12.20
2022-10-02T03:58:36.417Z,12.30
2022-10-02T04:01:13.861Z,12.30
2022-10-02T04:03:51.086Z,12.20
2022-10-02T04:06:39.728Z,12.30
2022-10-02T04:09:31.762Z,12.30
2022-10-02T04:12:01.265Z,12.30
2022-10-02T04:14:36.311Z,12.20
2022-10-02T04:17:13.983Z,12.30
2022-10-02T04:19:47.612Z,12.20
2022-10-02T04:22:31.408Z,12.20
2022-10-02T04:25:20.443Z,12.30
2022-10-02T04:27:50.498Z,12.30
2022-10-02T04:30:20.133Z,12.30
2022-10-02T04:32:47.844Z,12.20
2022-10-02T04:35:25.670Z,12.20
2022-10-02T04:37:52.882Z,12.20
2022-10-02T04:40:31.931Z,12.20
2022-10-02T04:43:23.235Z,12.30
2022-10-02T04:45:56.523Z,12.30
2022-10-02T04:48:35.198Z,12.30
2022-10-02T04:51:02.404Z,12.30
2022-10-02T04:53:51.307Z,12.30
2022-10-02T04:56:27.190Z,12.30
2022-10-02T04:59:15.951Z,12.30
2022-10-02T05:01:55.302Z,12.30
2022-10-02T05:04:28.621Z,12.30
2022-10-02T05:07:05.567Z,12.30
2022-10-02T05:09:42.361Z,12.30
2022-10-02T05:12:36.006Z,12.20
2022-10-02T05:15:37.301Z,12.30
2022-10-02T05:18:23.276Z,12.30
2022-10-02T05:20:56.669Z,12.40
2022-10-02T05:23:41.982Z,12.30
2022-10-02T05:26:31.860Z,12.30
2022-10-02T05:29:28.395Z,12.30
2022-10-02T05:32:20.054Z,12.40
2022-10-02T05:35:10.679Z,12.40
2022-10-02T05:37:37.814Z,12.40
2022-10-02T05:40:17.399Z,12.40
2022-10-02T05:42:54.021Z,12.40
2022-10-02T05:45:36.617Z,12.40
2022-10-02T05:48:15.848Z,12.40
2022-10-02T05:50:46.457Z,12.40
2022-10-02T05:53:36.941Z,12.40
2022-10-02T05:56:14.299Z,12.40
2022-10-02T05:58:54.204Z,12.40
2022-10-02T06:01:35.969Z,12.40
2022-10-02T06:04:30.918Z,12.50
2022-10-02T06:07:06.879Z,12.40
2022-10-02T06:09:47.839Z,12.50
2022-10-02T06:12:15.046Z,12.60
2022-10-02T06:15:00.236Z,12.60
2022-10-02T06:17:47.380Z,12.60
2022-10-02T06:21:05.149Z,12.60
2022-10-02T06:23:36.436Z,12.60
2022-10-02T06:26:27.344Z,12.60
2022-10-02T06:29:17.454Z,12.60
2022-10-02T06:31:54.718Z,12.60
2022-10-02T06:34:22.893Z,12.60
2022-10-02T06:36:55.929Z,12.60
2022-10-02T06:39:41.895Z,12.60
2022-10-02T06:42:21.032Z,12.60
2022-10-02T06:45:23.514Z,12.60
2022-10-02T06:48:24.566Z,12.70
2022-10-02T06:51:16.430Z,12.70
2022-10-02T06:54:11.911Z,12.80
2022-10-02T06:56:45.604Z,12.80
2022-10-02T06:59:30.215Z,12.80
2022-10-02T07:02:19.248Z,12.80
2022-10-02T07:05:26.487Z,12.80
2022-10-02T07:08:06.805Z,12.90
2022-10-02T07:10:45.286Z,12.80
2022-10-02T07:13:12.846Z,12.90
2022-10-02T07:16:09.273Z,13.00
2022-10-02T07:18:46.000Z,12.90
2022-10-02T07:21:34.816Z,13.00
2022-10-02T07:24:21.866Z,13.00
2022-10-02T07:26:55.435Z,13.00
2022-10-02T07:29:28.626Z,13.10
2022-10-02T07:32:21.332Z,13.10
2022-10-02T07:35:36.214Z,13.10
2022-10-02T07:38:14.537Z,13.10
2022-10-02T07:40:44.747Z,13.10
2022-10-02T07:43:35.947Z,13.10
2022-10-02T07:46:47.037Z,13.10
2022-10-02T07:49:41.178Z,13.10
2022-10-02T07:52:22.432Z,13.00
2022-10-02T07:54:49.719Z,13.00
2022-10-02T07:57:19.798Z,13.10
2022-10-02T07:59:49.183Z,13.10
2022-10-02T08:02:29.019Z,13.10
2022-10-02T08:05:01.796Z,13.10
2022-10-02T08:07:29.716Z,13.10
2022-10-02T08:10:02.219Z,13.10
2022-10-02T08:12:37.669Z,13.20
2022-10-02T08:15:06.477Z,13.20
2022-10-02T08:17:50.109Z,13.20
2022-10-02T08:20:34.200Z,13.10
2022-10-02T08:23:14.726Z,13.10
2022-10-02T08:26:11.315Z,13.10
2022-10-02T08:28:57.956Z,13.20
2022-10-02T08:31:25.882Z,13.20
2022-10-02T08:33:53.211Z,13.20
2022-10-02T08:36:47.198Z,13.20
2022-10-02T08:39:44.417Z,13.20
2022-10-02T08:42:35.935Z,13.20
2022-10-02T08:45:21.951Z,13.20
2022-10-02T08:48:16.854Z,13.20
2022-10-02T08:51:02.503Z,13.20
2022-10-02T08:54:06.879Z,13.20
2022-10-02T08:56:58.743Z,13.20
2022-10-02T08:59:42.284Z,13.30
2022-10-02T09:02:47.261Z,13.20
2022-10-02T09:05:41.770Z,13.20
2022-10-02T09:08:33.773Z,13.10
2022-10-02T09:11:46.004Z,13.10
2022-10-02T09:14:43.208Z,13.10
2022-10-02T09:17:46.637Z,13.00
2022-10-02T09:20:35.386Z,13.00
2022-10-02T09:23:27.397Z,13.00
2022-10-02T09:26:04.073Z,13.00
2022-10-02T09:28:59.268Z,13.00
2022-10-02T09:32:04.373Z,12.90
2022-10-02T09:35:02.199Z,13.00
2022-10-02T09:37:45.994Z,13.00
2022-10-02T09:40:50.257Z,13.10
2022-10-02T09:43:39.816Z,13.00
2022-10-02T09:46:36.377Z,13.10
2022-10-02T09:49:18.569Z,13.10
2022-10-02T09:51:54.961Z,13.10
2022-10-02T09:54:47.474Z,13.10
2022-10-02T09:57:39.392Z,13.20
2022-10-02T10:00:31.197Z,13.20
2022-10-02T10:03:16.629Z,13.10
2022-10-02T10:06:29.243Z,13.20
2022-10-02T10:09:05.101Z,13.20
2022-10-02T10:11:41.934Z,13.20
2022-10-02T10:15:06.240Z,13.30
2022-10-02T10:17:59.687Z,13.50
2022-10-02T10:20:26.997Z,13.50
2022-10-02T10:23:26.648Z,13.50
2022-10-02T10:26:18.064Z,13.40
2022-10-02T10:29:07.741Z,13.40
2022-10-02T10:32:19.301Z,13.40
2022-10-02T10:35:12.862Z,13.40
2022-10-02T10:38:16.025Z,13.50
2022-10-02T10:41:11.190Z,13.50
2022-10-02T10:43:39.196Z,13.40
2022-10-02T10:46:31.306Z,13.40
2022-10-02T10:49:04.449Z,13.40
2022-10-02T10:52:07.826Z,13.40
2022-10-02T10:54:54.951Z,13.30
2022-10-02T10:57:41.130Z,13.30
2022-10-02T11:01:07.094Z,13.20
2022-10-02T11:03:52.467Z,13.20
2022-10-02T11:06:31.102Z,13.20
2022-10-02T11:09:27.472Z,13.20
2022-10-02T11:12:30.033Z,13.30
2022-10-02T11:15:18.695Z,13.30
2022-10-02T11:18:14.768Z,13.30
2022-10-02T11:20:51.161Z,13.30
2022-10-02T11:23:21.268Z,13.30
2022-10-02T11:26:01.005Z,13.30
2022-10-02T11:29:06.259Z,13.30
2022-10-02T11:32:10.218Z,13.40
2022-10-02T11:34:43.555Z,13.30
2022-10-02T11:37:37.826Z,13.40
2022-10-02T11:40:23.071Z,13.30
2022-10-02T11:42:59.276Z,13.30
2022-10-02T11:45:54.458Z,13.30
2022-10-02T11:48:40.875Z,13.30
2022-10-02T11:51:17.509Z,13.30
2022-10-02T11:53:49.772Z,13.30
2022-10-02T11:56:38.253Z,13.30
2022-10-02T11:59:18.368Z,13.20
2022-10-02T12:02:06.958Z,13.20
2022-10-02T12:05:06.090Z,13.20
2022-10-02T12:08:09.766Z,13.10
2022-10-02T12:10:40.043Z,13.10
2022-10-02T12:13:16.060Z,13.10
2022-10-02T12:15:58.287Z,13.10
2022-10-02T12:19:03.023Z,13.10
2022-10-02T12:22:18.888Z,13.10
2022-10-02T12:25:27.548Z,13.20
2022-10-02T12:28:20.271Z,13.30
2022-10-02T12:31:01.433Z,13.30
2022-10-02T12:33:41.613Z,13.30
2022-10-02T12:36:24.672Z,13.40
2022-10-02T12:39:08.107Z,13.50
2022-10-02T12:41:41.357Z,13.60
2022-10-02T12:44:19.225Z,13.70
2022-10-02T12:47:36.070Z,13.60
2022-10-02T12:50:23.549Z,13.60
2022-10-02T12:53:14.701Z,13.70
2022-10-02T12:56:30.471Z,13.70
2022-10-02T12:59:11.929Z,13.70
2022-10-02T13:02:07.621Z,13.60
2022-10-02T13:05:03.577Z,13.60
2022-10-02T13:07:42.912Z,13.50
2022-10-02T13:10:31.102Z,13.40
2022-10-02T13:13:17.636Z,13.30
2022-10-02T13:16:06.182Z,13.20
2022-10-02T13:19:00.652Z,13.20
2022-10-02T13:21:59.079Z,13.20
2022-10-02T13:24:38.146Z,13.20
2022-10-02T13:27:44.148Z,13.30
2022-10-02T13:30:24.660Z,13.20
2022-10-02T13:33:00.661Z,13.20
2022-10-02T13:35:51.419Z,13.20
2022-10-02T13:38:33.407Z,13.20
2022-10-02T13:41:28.178Z,13.30
2022-10-02T13:44:14.489Z,13.30
2022-10-02T13:46:59.853Z,13.40
2022-10-02T13:49:45.317Z,13.40
2022-10-02T13:52:44.502Z,13.40
2022-10-02T13:55:34.167Z,13.50
2022-10-02T13:58:06.384Z,13.50
2022-10-02T14:00:40.355Z,13.50
2022-10-02T14:03:38.030Z,13.40
2022-10-02T14:06:27.254Z,13.30
2022-10-02T14:09:05.545Z,13.30
2022-10-02T14:11:53.967Z,13.40
2022-10-02T14:14:41.045Z,13.40
2022-10-02T14:17:14.109Z,13.30
2022-10-02T14:20:09.006Z,13.30
2022-10-02T14:22:54.726Z,13.30
2022-10-02T14:25:57.764Z,13.20
2022-10-02T14:28:54.418Z,13.20
2022-10-02T14:31:24.799Z,13.20
2022-10-02T14:34:40.751Z,13.30
2022-10-02T14:37:50.318Z,13.40
2022-10-02T14:40:19.267Z,13.30
2022-10-02T14:43:12.203Z,13.40
2022-10-02T14:45:58.784Z,13.40
2022-10-02T14:48:40.944Z,13.30
2022-10-02T14:51:22.661Z,13.30
2022-10-02T14:53:59.059Z,13.40
2022-10-02T14:56:47.694Z,13.30
2022-10-02T14:59:28.676Z,13.20
2022-10-02T15:02:08.920Z,13.20
2022-10-02T15:04:39.921Z,13.30
2022-10-02T15:07:19.295Z,13.30
2022-10-02T15:10:07.432Z,13.30
2022-10-02T15:13:01.647Z,13.40
2022-10-02T15:15:35.679Z,13.40
2022-10-02T15:18:34.563Z,13.30
2022-10-02T15:21:08.185Z,13.30
2022-10-02T15:23:43.978Z,13.20
2022-10-02T15:26:29.634Z,13.10
2022-10-02T15:29:00.248Z,13.00
2022-10-02T15:31:48.268Z,13.00
2022-10-02T15:34:21.256Z,13.00
2022-10-02T15:36:54.723Z,12.90
2022-10-02T15:39:35.439Z,12.90
2022-10-02T15:42:10.135Z,13.00
2022-10-02T15:45:06.211Z,13.00
2022-10-02T15:47:55.287Z,13.00
2022-10-02T15:50:31.793Z,12.90
2022-10-02T15:53:08.351Z,12.90
2022-10-02T15:55:45.886Z,12.90
2022-10-02T15:58:36.029Z,12.90
2022-10-02T16:01:04.243Z,12.90
2022-10-02T16:03:51.672Z,12.90
2022-10-02T16:06:53.769Z,12.80
2022-10-02T16:09:45.766Z,12.80
2022-10-02T16:12:47.766Z,12.80
2022-10-02T16:15:29.548Z,12.80
2022-10-02T16:17:56.984Z,12.80
2022-10-02T16:20:45.416Z,12.70
2022-10-02T16:23:31.364Z,12.70
2022-10-02T16:26:05.013Z,12.60
2022-10-02T16:28:51.755Z,12.70
2022-10-02T16:31:49.014Z,12.70
2022-10-02T16:34:29.602Z,12.60
2022-10-02T16:37:10.222Z,12.60
2022-10-02T16:40:21.534Z,12.50
2022-10-02T16:43:28.220Z,12.50
2022-10-02T16:46:24.634Z,12.40
2022-10-02T16:48:57.470Z,12.40
2022-10-02T16:52:02.776Z,12.40
2022-10-02T16:54:40.516Z,12.40
2022-10-02T16:57:33.614Z,12.30
2022-10-02T17:00:34.487Z,12.20
2022-10-02T17:03:39.621Z,12.30
2022-10-02T17:06:30.205Z,12.30
2022-10-02T17:09:29.081Z,12.20
2022-10-02T17:12:34.831Z,12.10
2022-10-02T17:15:28.473Z,12.10
2022-10-02T17:18:24.897Z,12.10
2022-10-02T17:21:06.685Z,12.10
2022-10-02T17:23:55.432Z,12.00
2022-10-02T17:26:51.164Z,12.00
2022-10-02T17:30:24.691Z,12.00
2022-10-02T17:33:15.810Z,12.00
2022-10-02T17:36:22.307Z,12.00
2022-10-02T17:39:29.261Z,12.00
2022-10-02T17:42:34.107Z,12.00
2022-10-02T17:45:30.343Z,12.00
2022-10-02T17:48:21.778Z,12.00
2022-10-02T17:51:51.373Z,12.00
2022-10-02T17:54:40.509Z,12.00
2022-10-02T17:57:29.492Z,11.90
2022-10-02T18:00:13.650Z,12.00
2022-10-02T18:03:18.310Z,12.00
2022-10-02T18:06:11.565Z,11.90
2022-10-02T18:08:58.038Z,12.00
2022-10-02T18:11:43.059Z,12.00
2022-10-02T18:14:47.148Z,12.00
2022-10-02T18:17:42.255Z,12.00
2022-10-02T18:20:46.581Z,12.00
2022-10-02T18:23:46.237Z,11.90
2022-10-02T18:26:42.799Z,11.90
2022-10-02T18:29:28.477Z,11.90
2022-10-02T18:32:54.243Z,11.80
2022-10-02T18:36:13.097Z,11.80
2022-10-02T18:38:48.034Z,11.90
2022-10-02T18:41:28.439Z,11.80
2022-10-02T18:44:21.279Z,11.90
2022-10-02T18:47:21.357Z,11.80
2022-10-02T18:50:26.978Z,11.80
2022-10-02T18:53:08.273Z,11.80
2022-10-02T18:56:03.429Z,11.90
2022-10-02T18:59:15.848Z,11.80
2022-10-02T19:02:32.506Z,11.70
2022-10-02T19:05:16.798Z,11.70
2022-10-02T19:07:51.276Z,11.70
2022-10-02T19:10:33.643Z,11.60
2022-10-02T19:13:18.137Z,11.60
2022-10-02T19:15:49.121Z,11.60
2022-10-02T19:18:28.359Z,11.60
2022-10-02T19:21:16.780Z,11.60
2022-10-02T19:24:14.773Z,11.60
2022-10-02T19:26:51.280Z,11.50
2022-10-02T19:29:45.623Z,11.50
2022-10-02T19:32:55.927Z,11.50
2022-10-02T19:35:33.064Z,11.40
2022-10-02T19:38:19.978Z,11.40
2022-10-02T19:40:53.569Z,11.30
2022-10-02T19:43:34.462Z,11.30
2022-10-02T19:46:05.620Z,11.30
2022-10-02T19:48:33.763Z,11.20
2022-10-02T19:51:08.208Z,11.30
2022-10-02T19:53:46.182Z,11.30
2022-10-02T19:56:17.726Z,11.20
2022-10-02T19:59:17.215Z,11.10
2022-10-02T20:01:52.537Z,11.10
2022-10-02T20:04:26.148Z,11.00
2022-10-02T20:06:58.494Z,11.00
2022-10-02T20:09:44.313Z,10.90
2022-10-02T20:12:29.047Z,10.90
2022-10-02T20:15:14.727Z,10.90
2022-10-02T20:17:42.399Z,10.80
2022-10-02T20:20:16.748Z,10.80
2022-10-02T20:22:50.268Z,10.80
2022-10-02T20:25:30.437Z,10.90
2022-10-02T20:28:17.400Z,10.90
2022-10-02T20:30:51.392Z,11.00
2022-10-02T20:33:25.404Z,11.00
2022-10-02T20:36:01.836Z,11.10
2022-10-02T20:38:35.294Z,11.10
2022-10-02T20:41:13.695Z,11.10
2022-10-02T20:43:54.138Z,11.20
2022-10-02T20:46:55.293Z,11.20
2022-10-02T20:50:00.154Z,11.20
2022-10-02T20:52:46.249Z,11.10
2022-10-02T20:55:56.619Z,11.10
2022-10-02T20:58:38.858Z,11.00
2022-10-02T21:01:31.104Z,10.90
2022-10-02T21:04:17.459Z,10.80
2022-10-02T21:07:05.693Z,10.90
2022-10-02T21:10:01.414Z,10.80
2022-10-02T21:12:58.816Z,10.70
2022-10-02T21:15:58.366Z,10.70
2022-10-02T21:21:53.690Z,10.50
2022-10-02T21:25:02.388Z,10.50
2022-10-02T21:28:07.176Z,10.50
2022-10-02T21:31:06.957Z,10.40
2022-10-02T21:34:10.122Z,10.40
2022-10-02T21:36:59.608Z,10.40
2022-10-02T21:40:35.507Z,10.40
2022-10-02T21:43:49.525Z,10.40
2022-10-02T21:47:07.980Z,10.40
2022-10-02T21:50:18.669Z,10.40
2022-10-02T21:53:24.824Z,10.30
2022-10-02T21:56:27.160Z,10.30
2022-10-02T21:59:56.721Z,10.30
2022-10-02T22:02:44.424Z,10.20
2022-10-02T22:05:28.101Z,10.20
2022-10-02T22:08:24.095Z,10.20
2022-10-02T22:11:25.127Z,10.20
2022-10-02T22:13:58.950Z,10.20
2022-10-02T22:16:43.287Z,10.20
2022-10-02T22:22:55.644Z,10.10
2022-10-02T22:26:11.247Z,10.10
2022-10-02T22:29:03.161Z,10.10
2022-10-02T22:31:46.350Z,10.10
2022-10-02T22:34:49.958Z,10.10
2022-10-02T22:37:59.915Z,10.00
2022-10-02T22:41:12.675Z,10.00
2022-10-02T22:43:56.410Z,10.00
2022-10-02T22:47:04.705Z,10.00
2022-10-02T22:50:04.465Z,10.00
2022-10-02T22:53:02.065Z,10.00
2022-10-02T22:55:53.107Z,10.10
2022-10-02T22:58:48.937Z,10.10
2022-10-02T23:01:28.827Z,10.20
2022-10-02T23:04:25.866Z,10.20
2022-10-02T23:07:14.393Z,10.20
2022-10-02T23:09:58.420Z,10.20
2022-10-02T23:12:51.953Z,10.10
2022-10-02T23:15:47.164Z,10.10
2022-10-02T23:18:27.702Z,10.00
2022-10-02T23:21:17.134Z,10.00
2022-10-02T23:24:25.061Z,9.90
2022-10-02T23:27:28.127Z,9.90
2022-10-02T23:29:59.895Z,9.90
2022-10-02T23:32:58.132Z,9.80
2022-10-02T23:35:41.474Z,9.80
2022-10-02T23:38:26.785Z,9.90
2022-10-02T23:41:50.079Z,9.90
2022-10-02T23:44:50.283Z,9.80
2022-10-02T23:47:58.830Z,9.90
2022-10-02T23:50:50.258Z,9.80
2022-10-02T23:53:34.481Z,9.80
2022-10-02T23:56:45.019Z,9.80
2022-10-02T23:59:43.568Z,9.80
